Hiyodori — JD2366 — position and weather

sailwx.info

Track history (hours):
 
Tides and Currents Weather Stations Pressure Air Temp Water Temp Dewpoint Dewpoint Depression Visibility Wind Speed Wind Dir Waves Ship Positions

Hiyodori

Last reported at 2016-Dec-11 02:33 UTC. Time now 2016-Dec-11 06:08 UTC.
Position N 35°12' E 139°46'.

Length 88 m; draft 3.6 m.

Type: Cargo ship. MMSI: 431000132.

Date/timePositionNaut miles runAvg speedWind from/ knotsBaromVisibWave heightAir tempDewpointWater temp
2016-Dec-11 02:33N 35°12' E 139°46'1111.2
2016-Dec-11 01:33N 35°23' E 139°41'1 1.2
2016-Dec-11 00:33N 35°24' E 139°41'0 0.0
2016-Dec-10 23:33N 35°24' E 139°41'3 2.7
2016-Dec-10 22:32N 35°23' E 139°44'0 0.0
2016-Dec-10 21:32N 35°23' E 139°44'0 0.1
2016-Dec-10 20:32N 35°23' E 139°44'6 6.2
2016-Dec-10 19:33N 35°17' E 139°45'1210.2
2016-Dec-10 18:24N 35°05' E 139°45'242 6.6
2016-Dec-09 05:33N 34°06' E 134°60'1211.2
2016-Dec-09 04:27N 34°18' E 134°59'1010.7
2016-Dec-09 03:33N 34°26' E 135°05'1110.9
2016-Dec-09 02:33N 34°34' E 135°15'7 6.2
2016-Dec-09 01:26N 34°41' E 135°16'0 0.0
2016-Dec-09 00:32N 34°41' E 135°16'0 0.0
2016-Dec-08 23:26N 34°41' E 135°16'4 3.9
2016-Dec-08 22:29N 34°38' E 135°19'0 0.0
2016-Dec-08 20:29N 34°38' E 135°19'0 0.1
2016-Dec-08 19:29N 34°38' E 135°19'0 0.0
2016-Dec-08 18:17N 34°38' E 135°19'0 0.0
2016-Dec-08 17:29N 34°38' E 135°19'0 0.0
2016-Dec-08 16:29N 34°38' E 135°19'0 0.0
2016-Dec-08 15:11N 34°38' E 135°19'5 8.6
2016-Dec-08 14:33N 34°34' E 135°15'1211.6
2016-Dec-08 13:33N 34°25' E 135°06'1110.5
2016-Dec-08 12:33N 34°16' E 134°59'1110.9
2016-Dec-08 11:33N 34°05' E 135°00'241 9.2
2016-Dec-07 09:24N 35°08' E 139°43'1010.9
2016-Dec-07 08:28N 35°18' E 139°44'6 6.5
2016-Dec-07 07:29N 35°24' E 139°41'0 0.0
2016-Dec-07 06:29N 35°24' E 139°41'1 1.4
2016-Dec-07 05:33N 35°23' E 139°41'1210.6
2016-Dec-07 04:27N 35°12' E 139°47'2 0.1
2016-Dec-06 03:30N 35°11' E 139°45'1111.3
2016-Dec-06 02:33N 35°21' E 139°42'3 3.1
2016-Dec-06 01:30N 35°24' E 139°41'0 0.0
2016-Dec-06 00:30N 35°24' E 139°41'0 0.0
2016-Dec-05 23:33N 35°24' E 139°41'3 2.7
2016-Dec-05 22:33N 35°23' E 139°44'0 0.1
2016-Dec-05 21:27N 35°23' E 139°44'0 0.0
2016-Dec-05 20:30N 35°23' E 139°44'0 0.0
2016-Dec-05 19:18N 35°23' E 139°44'0 0.1
2016-Dec-05 18:33N 35°23' E 139°44'12 8.5
2016-Dec-05 17:11N 35°12' E 139°47'911.4
2016-Dec-05 16:26N 35°03' E 139°43'  
2016-Dec-03 10:33N 35°07' E 139°41'1110.6
2016-Dec-03 09:33N 35°17' E 139°45'8 7.8
2016-Dec-03 08:33N 35°24' E 139°41'0 0.0
2016-Dec-03 07:33N 35°24' E 139°41'1 0.9
2016-Dec-03 06:33N 35°24' E 139°42'6 5.2
2016-Dec-03 05:27N 35°29' E 139°45'3 3.3
2016-Dec-03 04:33N 35°26' E 139°46'1110.8
2016-Dec-03 03:33N 35°16' E 139°47'  
Track history (hours):
 
Tides and Currents Weather Stations Pressure Air Temp Water Temp Dewpoint Dewpoint Depression Visibility Wind Speed Wind Dir Waves Ship Positions

Hiyodori

Last reported at 2016-Dec-11 02:33 UTC. Time now 2016-Dec-11 06:08 UTC.
Position N 35°12' E 139°46'.

Length 88 m; draft 3.6 m.

Type: Cargo ship. MMSI: 431000132.

Date/timePositionNaut miles runAvg speedWind from/ knotsBaromVisibWave heightAir tempDewpointWater temp
2016-Dec-11 02:33N 35°12' E 139°46'1111.2
2016-Dec-11 01:33N 35°23' E 139°41'1 1.2
2016-Dec-11 00:33N 35°24' E 139°41'0 0.0
2016-Dec-10 23:33N 35°24' E 139°41'3 2.7
2016-Dec-10 22:32N 35°23' E 139°44'0 0.0
2016-Dec-10 21:32N 35°23' E 139°44'0 0.1
2016-Dec-10 20:32N 35°23' E 139°44'6 6.2
2016-Dec-10 19:33N 35°17' E 139°45'1210.2
2016-Dec-10 18:24N 35°05' E 139°45'242 6.6
2016-Dec-09 05:33N 34°06' E 134°60'1211.2
2016-Dec-09 04:27N 34°18' E 134°59'1010.7
2016-Dec-09 03:33N 34°26' E 135°05'1110.9
2016-Dec-09 02:33N 34°34' E 135°15'7 6.2
2016-Dec-09 01:26N 34°41' E 135°16'0 0.0
2016-Dec-09 00:32N 34°41' E 135°16'0 0.0
2016-Dec-08 23:26N 34°41' E 135°16'4 3.9
2016-Dec-08 22:29N 34°38' E 135°19'0 0.0
2016-Dec-08 20:29N 34°38' E 135°19'0 0.1
2016-Dec-08 19:29N 34°38' E 135°19'0 0.0
2016-Dec-08 18:17N 34°38' E 135°19'0 0.0
2016-Dec-08 17:29N 34°38' E 135°19'0 0.0
2016-Dec-08 16:29N 34°38' E 135°19'0 0.0
2016-Dec-08 15:11N 34°38' E 135°19'5 8.6
2016-Dec-08 14:33N 34°34' E 135°15'1211.6
2016-Dec-08 13:33N 34°25' E 135°06'1110.5
2016-Dec-08 12:33N 34°16' E 134°59'1110.9
2016-Dec-08 11:33N 34°05' E 135°00'241 9.2
2016-Dec-07 09:24N 35°08' E 139°43'1010.9
2016-Dec-07 08:28N 35°18' E 139°44'6 6.5
2016-Dec-07 07:29N 35°24' E 139°41'0 0.0
2016-Dec-07 06:29N 35°24' E 139°41'1 1.4
2016-Dec-07 05:33N 35°23' E 139°41'1210.6
2016-Dec-07 04:27N 35°12' E 139°47'2 0.1
2016-Dec-06 03:30N 35°11' E 139°45'1111.3
2016-Dec-06 02:33N 35°21' E 139°42'3 3.1
2016-Dec-06 01:30N 35°24' E 139°41'0 0.0
2016-Dec-06 00:30N 35°24' E 139°41'0 0.0
2016-Dec-05 23:33N 35°24' E 139°41'3 2.7
2016-Dec-05 22:33N 35°23' E 139°44'0 0.1
2016-Dec-05 21:27N 35°23' E 139°44'0 0.0
2016-Dec-05 20:30N 35°23' E 139°44'0 0.0
2016-Dec-05 19:18N 35°23' E 139°44'0 0.1
2016-Dec-05 18:33N 35°23' E 139°44'12 8.5
2016-Dec-05 17:11N 35°12' E 139°47'911.4
2016-Dec-05 16:26N 35°03' E 139°43'  
2016-Dec-03 10:33N 35°07' E 139°41'1110.6
2016-Dec-03 09:33N 35°17' E 139°45'8 7.8
2016-Dec-03 08:33N 35°24' E 139°41'0 0.0
2016-Dec-03 07:33N 35°24' E 139°41'1 0.9
2016-Dec-03 06:33N 35°24' E 139°42'6 5.2
2016-Dec-03 05:27N 35°29' E 139°45'3 3.3
2016-Dec-03 04:33N 35°26' E 139°46'1110.8
2016-Dec-03 03:33N 35°16' E 139°47'  

Dump ship's entire track history